Nearby METAR Reports

 

EGNR - Hawarden (aut), United Kingdom
Distance from station: ESE 33mi, 53km
Updated: 01/03/2021 19:20
NOT Current
Mostly cloudy
Mostly cloudy
 Wind from SSE
Wind: SSE 10 mph , 17 km/h
Temperature: 4°C
Wind Chill: 0°C
Dew Point: 1°C
Humidity: 81%
Barometer: 1032 hPa
Clouds: Mostly cloudy
Visibility: 4 miles , 6 km
Cloud details: Mostly cloudy 366 m
2021/03/01 19:20 EGNR 011920Z 16009KT 6000 BKN012 04/01 Q1032
EGOV - Valley Raf, United Kingdom
Distance from station: W 33mi, 53km
Updated: 01/03/2021 21:50
Haze, Clear
Haze, Clear
 Wind from N
Wind: N 6 mph , 9 km/h
Temperature: 3°C
Wind Chill: 0°C
Dew Point: 1°C
Humidity: 87%
Barometer: 1029 hPa
Summary: Haze
Clouds: Clear
Visibility: 4 miles , 7 km
2021/03/01 21:50 EGOV 012150Z AUTO 36005KT 7000 HZ NCD 03/01 Q1029
 
EGGP - Liverpool Airpor, United Kingdom
Distance from station: E 37mi, 59km
Updated: 01/03/2021 22:50
Overcast
Overcast
 Wind from SE
Wind: SE 10 mph , 17 km/h
Temperature: 5°C
Wind Chill: 2°C
Dew Point: 3°C
Humidity: 87%
Barometer: 1031 hPa
Clouds: Overcast
Visibility: 6 miles , 10 km
Cloud details: Overcast 305 m
2021/03/01 22:50 EGGP 012250Z AUTO 14009KT 110V170 9999 OVC010/// 05/03 Q1031
EGNH - Blackpool Airpor, United Kingdom
Distance from station: NE 44mi, 72km
Updated: 01/03/2021 20:50
NOT Current
Partly cloudy
Partly cloudy
 Wind from ESE
Wind: ESE 10 mph , 17 km/h
Temperature: 3°C
Wind Chill: -1°C
Dew Point: 1°C
Humidity: 87%
Barometer: 1031 hPa
Clouds: Partly cloudy
Visibility: 4 miles , 7 km
2021/03/01 20:50 EGNH 012050Z 12009KT 7000 NSC 03/01 Q1031
 
EGNO - Wharton, United Kingdom
Distance from station: NE 47mi, 76km
Updated: 01/03/2021 14:50
NOT Current
Clear
Clear
 Wind from E
Wind: E 13 mph , 20 km/h
Temperature: 9°C
Wind Chill: 6°C
Dew Point: 5°C
Humidity: 76%
Barometer: 1031 hPa
Summary: Clear
Visibility: greater than 7 miles , 10 km
2021/03/01 14:50 EGNO 011450Z 08011KT CAVOK 09/05 Q1031
EGOS - Shawbury Raf, United Kingdom
Distance from station: SE 56mi, 89km
Updated: 01/03/2021 21:50
Overcast
Overcast
 Wind from SE
Wind: SE 6 mph , 9 km/h
Temperature: 4°C
Wind Chill: 2°C
Dew Point: 2°C
Humidity: 87%
Barometer: 1031 hPa
Clouds: Overcast
Visibility: 6 miles , 10 km
Cloud details: Overcast 335 m
2021/03/01 21:50 EGOS 012150Z AUTO 14005KT 9999 OVC011/// 04/02 Q1031
 
EGCC - Manchester Intl, United Kingdom
Distance from station: E 61mi, 98km
Updated: 01/03/2021 22:50
Mist, Few clouds
Mist, Few clouds
 Wind from SE
Wind: SE 1 mph , 2 km/h
Temperature: 0°C
Dew Point: 0°C
Humidity: 100%
Barometer: 1031 hPa
Summary: Mist
Clouds: Few Clouds
Visibility: 3 miles , 5 km
Cloud details: Few Clouds 427 m
2021/03/01 22:50 EGCC 012250Z AUTO 14001KT 5000 BR FEW014 00/M00 Q1031
EGNS - Isle Of Man/Rona, United Kingdom
Distance from station: NW 66mi, 107km
Updated: 01/03/2021 22:50
Haze, Overcast
Haze, Overcast
 Wind from E
Wind: E 16 mph , 26 km/h
Temperature: 5°C
Wind Chill: 1°C
Dew Point: 4°C
Humidity: 93%
Barometer: 1030 hPa
Summary: Haze
Clouds: Overcast
Visibility: 2 miles , 4 km
Cloud details: Overcast 183 m
2021/03/01 22:50 EGNS 012250Z 10014KT 4000 HZ OVC006 05/04 Q1030
 
EGNM - Leeds And Bradfo, United Kingdom
Distance from station: ENE 95mi, 153km
Updated: 01/03/2021 16:50
NOT Current
Mist, Mostly cloudy
Mist, Mostly cloudy
 Wind from E
Wind: E 6 mph , 9 km/h
Temperature: 4°C
Wind Chill: 2°C
Dew Point: 3°C
Humidity: 93%
Barometer: 1032 hPa
Summary: Mist
Clouds: Mostly cloudy
Visibility: 2 miles , 3 km
Cloud details: Few Clouds 91 m
Mostly cloudy 122 m
2021/03/01 16:50 EGNM 011650Z 09005KT 3000 BR FEW003 BKN004 04/03 Q1032
EGBB - Birmingham Airpo, United Kingdom
Distance from station: ESE 100mi, 161km
Updated: 01/03/2021 22:50
Overcast
Overcast
 Wind from ENE
Wind: ENE 8 mph , 13 km/h
Temperature: 4°C
Wind Chill: 1°C
Dew Point: 2°C
Humidity: 87%
Barometer: 1031 hPa
Clouds: Overcast
Visibility: 6 miles , 10 km
Cloud details: Overcast 274 m
2021/03/01 22:50 EGBB 012250Z 06007KT 9999 OVC009 04/02 Q1031